createdAt,value
2023-12-20T00:00:23.704Z,95134.00
2023-12-20T00:01:23.866Z,95134.00
2023-12-20T00:02:23.777Z,95135.00
2023-12-20T00:03:23.810Z,95133.00
2023-12-20T00:04:23.947Z,95131.00
2023-12-20T00:05:23.884Z,95129.00
2023-12-20T00:06:23.899Z,95127.00
2023-12-20T00:07:24.009Z,95126.00
2023-12-20T00:08:23.910Z,95125.00
2023-12-20T00:09:23.956Z,95124.00
2023-12-20T00:10:24.002Z,95126.00
2023-12-20T00:11:23.982Z,95125.00
2023-12-20T00:12:24.051Z,95125.00
2023-12-20T00:13:24.061Z,95123.00
2023-12-20T00:14:24.104Z,95123.00
2023-12-20T00:15:24.088Z,95121.00
2023-12-20T00:16:24.143Z,95118.00
2023-12-20T00:17:24.200Z,95119.00
2023-12-20T00:18:24.188Z,95119.00
2023-12-20T00:19:24.308Z,95118.00
2023-12-20T00:20:24.311Z,95122.00
2023-12-20T00:21:24.264Z,95119.00
2023-12-20T00:22:24.323Z,95120.00
2023-12-20T00:23:24.388Z,95120.00
2023-12-20T00:24:24.356Z,95121.00
2023-12-20T00:25:24.433Z,95122.00
2023-12-20T00:26:24.390Z,95122.00
2023-12-20T00:27:24.456Z,95119.00
2023-12-20T00:28:24.529Z,95117.00
2023-12-20T00:29:24.471Z,95119.00
2023-12-20T00:30:24.510Z,95118.00
2023-12-20T00:31:24.605Z,95118.00
2023-12-20T00:32:24.580Z,95119.00
2023-12-20T00:33:24.670Z,95119.00
2023-12-20T00:34:24.640Z,95118.00
2023-12-20T00:35:24.632Z,95118.00
2023-12-20T00:36:24.682Z,95116.00
2023-12-20T00:37:24.739Z,95117.00
2023-12-20T00:38:24.702Z,95115.00
2023-12-20T00:39:24.735Z,95118.00
2023-12-20T00:40:24.800Z,95115.00
2023-12-20T00:41:24.796Z,95114.00
2023-12-20T00:42:24.811Z,95114.00
2023-12-20T00:43:25.027Z,95113.00
2023-12-20T00:44:24.867Z,95114.00
2023-12-20T00:45:24.928Z,95115.00
2023-12-20T00:46:25.051Z,95114.00
2023-12-20T00:47:25.092Z,95115.00
2023-12-20T00:48:25.074Z,95113.00
2023-12-20T00:49:25.255Z,95111.00
2023-12-20T00:50:28.151Z,95109.00
2023-12-20T00:51:25.079Z,95107.00
2023-12-20T00:52:25.170Z,95107.00
2023-12-20T00:53:25.081Z,95106.00
2023-12-20T00:54:25.110Z,95107.00
2023-12-20T00:55:25.131Z,95110.00
2023-12-20T00:56:25.173Z,95113.00
2023-12-20T00:57:25.062Z,95116.00
2023-12-20T00:58:25.115Z,95118.00
2023-12-20T00:59:25.075Z,95117.00
2023-12-20T01:00:25.095Z,95115.00
2023-12-20T01:01:25.141Z,95116.00
2023-12-20T01:02:25.072Z,95119.00
2023-12-20T01:03:25.164Z,95122.00
2023-12-20T01:04:25.208Z,95121.00
2023-12-20T01:05:25.170Z,95124.00
2023-12-20T01:06:25.076Z,95127.00
2023-12-20T01:07:25.123Z,95127.00
2023-12-20T01:08:25.101Z,95128.00
2023-12-20T01:09:25.098Z,95128.00
2023-12-20T01:10:25.136Z,95127.00
2023-12-20T01:11:25.084Z,95126.00
2023-12-20T01:12:25.121Z,95124.00
2023-12-20T01:13:25.127Z,95126.00
2023-12-20T01:14:25.107Z,95126.00
2023-12-20T01:15:25.119Z,95127.00
2023-12-20T01:16:25.110Z,95128.00
2023-12-20T01:17:25.168Z,95126.00
2023-12-20T01:18:25.111Z,95124.00
2023-12-20T01:19:25.261Z,95123.00
2023-12-20T01:20:25.179Z,95124.00
2023-12-20T01:21:25.126Z,95126.00
2023-12-20T01:22:25.197Z,95127.00
2023-12-20T01:23:25.161Z,95128.00
2023-12-20T01:24:25.144Z,95124.00
2023-12-20T01:25:25.188Z,95123.00
2023-12-20T01:26:25.189Z,95124.00
2023-12-20T01:27:25.178Z,95123.00
2023-12-20T01:28:25.296Z,95119.00
2023-12-20T01:29:25.202Z,95117.00
2023-12-20T01:30:25.251Z,95118.00
2023-12-20T01:31:25.284Z,95117.00
2023-12-20T01:32:25.246Z,95117.00
2023-12-20T01:33:25.240Z,95115.00
2023-12-20T01:34:25.296Z,95113.00
2023-12-20T01:35:25.315Z,95114.00
2023-12-20T01:36:25.330Z,95115.00
2023-12-20T01:37:25.391Z,95115.00
2023-12-20T01:38:25.340Z,95111.00
2023-12-20T01:39:28.404Z,95108.00
2023-12-20T01:40:25.521Z,95106.00
2023-12-20T01:41:25.420Z,95101.00
2023-12-20T01:42:25.435Z,95096.00
2023-12-20T01:43:27.936Z,95094.00
2023-12-20T01:44:25.417Z,95093.00
2023-12-20T01:45:25.391Z,95095.00
2023-12-20T01:46:25.412Z,95095.00
2023-12-20T01:47:25.401Z,95089.00
2023-12-20T01:48:25.387Z,95087.00
2023-12-20T01:49:25.464Z,95082.00
2023-12-20T01:50:25.538Z,95082.00
2023-12-20T01:51:25.390Z,95084.00
2023-12-20T01:52:25.388Z,95082.00
2023-12-20T01:53:25.402Z,95080.00
2023-12-20T01:54:25.401Z,95079.00
2023-12-20T01:55:25.451Z,95076.00
2023-12-20T01:56:25.393Z,95076.00
2023-12-20T01:57:25.428Z,95075.00
2023-12-20T01:58:25.449Z,95074.00
2023-12-20T01:59:25.380Z,95069.00
2023-12-20T02:00:25.392Z,95063.00
2023-12-20T02:01:25.462Z,95060.00
2023-12-20T02:02:25.414Z,95057.00
2023-12-20T02:03:25.426Z,95058.00
2023-12-20T02:04:25.429Z,95054.00
2023-12-20T02:05:25.428Z,95049.00
2023-12-20T02:06:25.422Z,95041.00
2023-12-20T02:07:25.522Z,95035.00
2023-12-20T02:08:25.404Z,95031.00
2023-12-20T02:09:25.405Z,95029.00
2023-12-20T02:10:25.479Z,95029.00
2023-12-20T02:11:25.426Z,95026.00
2023-12-20T02:12:25.431Z,95025.00
2023-12-20T02:13:25.422Z,95023.00
2023-12-20T02:14:25.380Z,95019.00
2023-12-20T02:15:25.415Z,95016.00
2023-12-20T02:16:25.485Z,95015.00
2023-12-20T02:17:25.427Z,95010.00
2023-12-20T02:18:25.618Z,95004.00
2023-12-20T02:19:25.634Z,95001.00
2023-12-20T02:20:25.686Z,94995.00
2023-12-20T02:21:25.644Z,94994.00
2023-12-20T02:22:25.733Z,94991.00
2023-12-20T02:23:25.771Z,94989.00
2023-12-20T02:24:25.849Z,94984.00
2023-12-20T02:25:26.046Z,94977.00
2023-12-20T02:26:25.974Z,94975.00
2023-12-20T02:27:26.068Z,94972.00
2023-12-20T02:28:26.152Z,94966.00
2023-12-20T02:29:26.205Z,94964.00
2023-12-20T02:30:26.250Z,94965.00
2023-12-20T02:31:26.366Z,94968.00
2023-12-20T02:32:26.416Z,94965.00
2023-12-20T02:33:26.481Z,94962.00
2023-12-20T02:34:26.562Z,94954.00
2023-12-20T02:35:26.675Z,94948.00
2023-12-20T02:36:26.633Z,94948.00
2023-12-20T02:37:26.846Z,94947.00
2023-12-20T02:38:26.783Z,94947.00
2023-12-20T02:39:26.819Z,94947.00
2023-12-20T02:40:26.971Z,94944.00
2023-12-20T02:41:26.986Z,94946.00
2023-12-20T02:42:27.013Z,94948.00
2023-12-20T02:43:27.104Z,94954.00
2023-12-20T02:44:27.148Z,94953.00
2023-12-20T02:45:27.169Z,94947.00
2023-12-20T02:46:27.279Z,94943.00
2023-12-20T02:47:27.352Z,94940.00
2023-12-20T02:48:27.463Z,94935.00
2023-12-20T02:49:27.519Z,94929.00
2023-12-20T02:50:27.493Z,94923.00
2023-12-20T02:51:27.554Z,94922.00
2023-12-20T02:52:27.626Z,94922.00
2023-12-20T02:53:27.685Z,94923.00
2023-12-20T02:54:27.718Z,94922.00
2023-12-20T02:55:27.860Z,94921.00
2023-12-20T02:56:27.829Z,94920.00
2023-12-20T02:57:27.898Z,94922.00
2023-12-20T02:58:28.052Z,94920.00
2023-12-20T02:59:28.026Z,94921.00
2023-12-20T03:00:28.055Z,94921.00
2023-12-20T03:01:28.227Z,94916.00
2023-12-20T03:02:28.185Z,94914.00
2023-12-20T03:03:28.229Z,94915.00
2023-12-20T03:04:28.362Z,94916.00
2023-12-20T03:05:28.449Z,94918.00
2023-12-20T03:06:28.430Z,94918.00
2023-12-20T03:07:28.497Z,94915.00
2023-12-20T03:08:31.800Z,94918.00
2023-12-20T03:09:29.596Z,94917.00
2023-12-20T03:10:28.633Z,94916.00
2023-12-20T03:11:28.605Z,94916.00
2023-12-20T03:12:28.646Z,94916.00
2023-12-20T03:13:28.780Z,94921.00
2023-12-20T03:14:28.767Z,94922.00
2023-12-20T03:15:28.831Z,94924.00
2023-12-20T03:16:28.849Z,94922.00
2023-12-20T03:17:28.949Z,94920.00
2023-12-20T03:18:28.968Z,94921.00
2023-12-20T03:19:29.058Z,94923.00
2023-12-20T03:20:29.124Z,94921.00
2023-12-20T03:21:29.133Z,94919.00
2023-12-20T03:22:29.181Z,94921.00
2023-12-20T03:23:29.256Z,94919.00
2023-12-20T03:24:29.322Z,94918.00
2023-12-20T03:25:29.397Z,94918.00
2023-12-20T03:26:29.422Z,94916.00
2023-12-20T03:27:29.478Z,94916.00
2023-12-20T03:28:29.672Z,94916.00
2023-12-20T03:29:29.679Z,94919.00
2023-12-20T03:30:29.671Z,94920.00
2023-12-20T03:31:29.726Z,94918.00
2023-12-20T03:32:29.837Z,94915.00
2023-12-20T03:33:29.897Z,94914.00
2023-12-20T03:34:29.910Z,94916.00
2023-12-20T03:35:29.937Z,94919.00
2023-12-20T03:36:29.982Z,94919.00
2023-12-20T03:37:30.047Z,94922.00
2023-12-20T03:38:30.092Z,94922.00
2023-12-20T03:39:30.173Z,94922.00
2023-12-20T03:40:30.225Z,94921.00
2023-12-20T03:41:30.224Z,94918.00
2023-12-20T03:42:30.302Z,94921.00
2023-12-20T03:43:30.348Z,94922.00
2023-12-20T03:44:30.433Z,94923.00
2023-12-20T03:45:30.517Z,94927.00
2023-12-20T03:46:30.550Z,94931.00
2023-12-20T03:47:30.622Z,94933.00
2023-12-20T03:48:30.626Z,94931.00
2023-12-20T03:49:30.805Z,94930.00
2023-12-20T03:50:30.775Z,94934.00
2023-12-20T03:51:30.817Z,94939.00
2023-12-20T03:52:30.947Z,94945.00
2023-12-20T03:53:30.915Z,94947.00
2023-12-20T03:54:30.978Z,94944.00
2023-12-20T03:55:31.038Z,94940.00
2023-12-20T03:56:31.129Z,94941.00
2023-12-20T03:57:31.142Z,94943.00
2023-12-20T03:58:31.229Z,94944.00
2023-12-20T03:59:31.236Z,94941.00
2023-12-20T04:00:31.360Z,94939.00
2023-12-20T04:01:31.397Z,94936.00
2023-12-20T04:02:31.410Z,94933.00
2023-12-20T04:03:31.450Z,94932.00
2023-12-20T04:04:31.623Z,94933.00
2023-12-20T04:05:31.707Z,94936.00
2023-12-20T04:06:31.760Z,94936.00
2023-12-20T04:07:31.846Z,94939.00
2023-12-20T04:08:31.775Z,94937.00
2023-12-20T04:09:31.868Z,94937.00
2023-12-20T04:10:31.863Z,94933.00
2023-12-20T04:11:31.954Z,94929.00
2023-12-20T04:12:31.983Z,94928.00
2023-12-20T04:13:32.050Z,94924.00
2023-12-20T04:14:32.119Z,94922.00
2023-12-20T04:15:32.190Z,94918.00
2023-12-20T04:16:32.212Z,94921.00
2023-12-20T04:17:32.299Z,94920.00
2023-12-20T04:18:32.454Z,94920.00
2023-12-20T04:19:32.445Z,94920.00
2023-12-20T04:20:32.481Z,94920.00
2023-12-20T04:21:32.509Z,94920.00
2023-12-20T04:22:32.590Z,94919.00
2023-12-20T04:23:32.635Z,94921.00
2023-12-20T04:24:32.673Z,94920.00
2023-12-20T04:25:32.781Z,94915.00
2023-12-20T04:26:32.800Z,94914.00
2023-12-20T04:27:32.858Z,94914.00
2023-12-20T04:28:32.954Z,94916.00
2023-12-20T04:29:32.992Z,94921.00
2023-12-20T04:30:33.047Z,94921.00
2023-12-20T04:31:33.151Z,94921.00
2023-12-20T04:32:33.159Z,94919.00
2023-12-20T04:33:33.231Z,94916.00
2023-12-20T04:34:33.285Z,94909.00
2023-12-20T04:35:33.396Z,94909.00
2023-12-20T04:36:33.419Z,94914.00
2023-12-20T04:37:33.428Z,94922.00
2023-12-20T04:38:33.520Z,94925.00
2023-12-20T04:39:33.537Z,94931.00
2023-12-20T04:40:33.688Z,94931.00
2023-12-20T04:41:33.674Z,94937.00
2023-12-20T04:42:33.716Z,94940.00
2023-12-20T04:43:33.773Z,94939.00
2023-12-20T04:44:41.060Z,94939.00
2023-12-20T04:45:41.104Z,94940.00
2023-12-20T04:46:41.076Z,94942.00
2023-12-20T04:47:41.049Z,94943.00
2023-12-20T04:48:41.169Z,94946.00
2023-12-20T04:49:41.084Z,94942.00
2023-12-20T04:50:41.085Z,94947.00
2023-12-20T04:51:41.136Z,94949.00
2023-12-20T04:52:41.065Z,94949.00
2023-12-20T04:53:41.074Z,94950.00
2023-12-20T04:54:43.798Z,94951.00
2023-12-20T04:55:41.134Z,94950.00
2023-12-20T04:56:41.072Z,94952.00
2023-12-20T04:57:41.155Z,94955.00
2023-12-20T04:58:41.096Z,94959.00
2023-12-20T04:59:41.094Z,94962.00
2023-12-20T05:00:41.130Z,94960.00
2023-12-20T05:01:41.190Z,94958.00
2023-12-20T05:02:41.090Z,94957.00
2023-12-20T05:03:41.091Z,94960.00
2023-12-20T05:04:41.124Z,94956.00
2023-12-20T05:05:41.178Z,94957.00
2023-12-20T05:06:41.183Z,94957.00
2023-12-20T05:07:41.198Z,94958.00
2023-12-20T05:08:41.077Z,94959.00
2023-12-20T05:09:41.101Z,94961.00
2023-12-20T05:10:41.140Z,94962.00
2023-12-20T05:11:41.074Z,94961.00
2023-12-20T05:12:41.152Z,94963.00
2023-12-20T05:13:45.396Z,94963.00
2023-12-20T05:14:42.110Z,94966.00
2023-12-20T05:15:41.190Z,94966.00
2023-12-20T05:16:41.073Z,94967.00
2023-12-20T05:17:41.166Z,94967.00
2023-12-20T05:18:41.115Z,94968.00
2023-12-20T05:19:41.143Z,94967.00
2023-12-20T05:20:41.103Z,94968.00
2023-12-20T05:21:41.134Z,94971.00
2023-12-20T05:22:41.096Z,94974.00
2023-12-20T05:23:41.101Z,94978.00
2023-12-20T05:24:41.106Z,94979.00
2023-12-20T05:25:41.128Z,94982.00
2023-12-20T05:26:41.095Z,94989.00
2023-12-20T05:27:41.211Z,94994.00
2023-12-20T05:28:41.144Z,94997.00
2023-12-20T05:29:41.113Z,95001.00
2023-12-20T05:30:41.182Z,94998.00
2023-12-20T05:31:41.203Z,94996.00
2023-12-20T05:32:41.218Z,94997.00
2023-12-20T05:33:41.203Z,94996.00
2023-12-20T05:34:41.213Z,95000.00
2023-12-20T05:35:41.279Z,95004.00
2023-12-20T05:36:41.307Z,95008.00
2023-12-20T05:37:41.307Z,95010.00
2023-12-20T05:38:41.305Z,95015.00
2023-12-20T05:39:41.377Z,95019.00
2023-12-20T05:40:41.400Z,95023.00
2023-12-20T05:41:41.457Z,95027.00
2023-12-20T05:42:41.560Z,95028.00
2023-12-20T05:43:41.526Z,95028.00
2023-12-20T05:44:41.524Z,95032.00
2023-12-20T05:45:41.624Z,95039.00
2023-12-20T05:46:41.601Z,95043.00
2023-12-20T05:47:41.664Z,95049.00
2023-12-20T05:48:41.783Z,95054.00
2023-12-20T05:49:41.788Z,95057.00
2023-12-20T05:50:41.813Z,95057.00
2023-12-20T05:51:41.816Z,95059.00
2023-12-20T05:52:41.859Z,95061.00
2023-12-20T05:53:41.876Z,95064.00
2023-12-20T05:54:41.951Z,95065.00
2023-12-20T05:55:41.954Z,95065.00
2023-12-20T05:56:41.978Z,95064.00
2023-12-20T05:57:42.096Z,95060.00
2023-12-20T05:58:42.070Z,95053.00
2023-12-20T05:59:42.129Z,95049.00
2023-12-20T06:00:42.213Z,95048.00
2023-12-20T06:02:04.727Z,95048.00
2023-12-20T06:02:42.204Z,95048.00
2023-12-20T06:03:42.224Z,95050.00
2023-12-20T06:04:42.276Z,95055.00
2023-12-20T06:05:42.207Z,95060.00
2023-12-20T06:06:42.287Z,95066.00
2023-12-20T06:07:42.363Z,95068.00
2023-12-20T06:08:42.221Z,95068.00
2023-12-20T06:09:42.249Z,95065.00
2023-12-20T06:10:42.205Z,95063.00
2023-12-20T06:11:42.239Z,95063.00
2023-12-20T06:12:42.278Z,95060.00
2023-12-20T06:13:42.203Z,95058.00
2023-12-20T06:14:42.186Z,95055.00
2023-12-20T06:15:42.294Z,95054.00
2023-12-20T06:16:42.205Z,95057.00
2023-12-20T06:17:42.365Z,95059.00
2023-12-20T06:18:42.262Z,95061.00
2023-12-20T06:19:42.347Z,95061.00
2023-12-20T06:20:42.236Z,95059.00
2023-12-20T06:21:44.940Z,95061.00
2023-12-20T06:22:42.203Z,95065.00
2023-12-20T06:23:42.226Z,95069.00
2023-12-20T06:24:42.241Z,95075.00
2023-12-20T06:25:42.206Z,95076.00
2023-12-20T06:26:42.247Z,95076.00
2023-12-20T06:27:42.280Z,95077.00
2023-12-20T06:28:42.581Z,95073.00
2023-12-20T06:29:42.259Z,95072.00
2023-12-20T06:30:42.278Z,95071.00
2023-12-20T06:31:42.825Z,95073.00
2023-12-20T06:32:42.280Z,95080.00
2023-12-20T06:33:42.370Z,95089.00
2023-12-20T06:34:42.239Z,95092.00
2023-12-20T06:35:42.238Z,95091.00
2023-12-20T06:36:42.819Z,95090.00
2023-12-20T06:37:42.322Z,95087.00
2023-12-20T06:38:42.278Z,95085.00
2023-12-20T06:39:42.293Z,95084.00
2023-12-20T06:40:42.494Z,95084.00
2023-12-20T06:41:42.749Z,95081.00
2023-12-20T06:42:47.547Z,95084.00
2023-12-20T06:43:49.488Z,95083.00
2023-12-20T06:44:43.268Z,95082.00
2023-12-20T06:46:05.324Z,95084.00
2023-12-20T06:46:42.299Z,95083.00
2023-12-20T06:47:42.393Z,95083.00
2023-12-20T06:48:42.550Z,95081.00
2023-12-20T06:49:42.392Z,95081.00
2023-12-20T06:50:42.336Z,95078.00
2023-12-20T06:51:42.794Z,95076.00
2023-12-20T06:52:42.280Z,95077.00
2023-12-20T06:53:42.305Z,95075.00
2023-12-20T06:54:42.381Z,95071.00
2023-12-20T06:55:42.393Z,95071.00
2023-12-20T06:56:42.478Z,95070.00
2023-12-20T06:57:42.620Z,95070.00
2023-12-20T06:58:42.513Z,95075.00
2023-12-20T06:59:42.535Z,95073.00
2023-12-20T07:00:42.599Z,95074.00
2023-12-20T07:01:42.699Z,95078.00
2023-12-20T07:02:42.654Z,95079.00
2023-12-20T07:03:42.753Z,95082.00
2023-12-20T07:04:42.736Z,95082.00
2023-12-20T07:05:42.697Z,95079.00
2023-12-20T07:06:42.886Z,95078.00
2023-12-20T07:07:42.823Z,95077.00
2023-12-20T07:08:42.787Z,95078.00
2023-12-20T07:09:42.788Z,95079.00
2023-12-20T07:10:42.780Z,95079.00
2023-12-20T07:11:43.278Z,95079.00
2023-12-20T07:12:42.852Z,95078.00
2023-12-20T07:13:42.849Z,95077.00
2023-12-20T07:14:42.833Z,95078.00
2023-12-20T07:15:44.898Z,95079.00
2023-12-20T07:16:43.270Z,95084.00
2023-12-20T07:17:42.970Z,95085.00
2023-12-20T07:18:42.856Z,95090.00
2023-12-20T07:19:42.877Z,95094.00
2023-12-20T07:20:42.903Z,95100.00
2023-12-20T07:21:42.866Z,95103.00
2023-12-20T07:22:42.936Z,95107.00
2023-12-20T07:23:42.901Z,95111.00
2023-12-20T07:24:42.955Z,95112.00
2023-12-20T07:25:42.922Z,95114.00
2023-12-20T07:26:42.960Z,95116.00
2023-12-20T07:27:45.528Z,95119.00
2023-12-20T07:28:43.052Z,95124.00
2023-12-20T07:29:43.068Z,95130.00
2023-12-20T07:30:43.111Z,95132.00
2023-12-20T07:31:42.984Z,95135.00
2023-12-20T07:32:43.288Z,95135.00
2023-12-20T07:33:43.156Z,95136.00
2023-12-20T07:34:43.127Z,95138.00
2023-12-20T07:35:43.139Z,95141.00
2023-12-20T07:36:43.048Z,95147.00
2023-12-20T07:37:43.499Z,95150.00
2023-12-20T07:38:43.013Z,95152.00
2023-12-20T07:39:43.432Z,95155.00
2023-12-20T07:40:44.012Z,95157.00
2023-12-20T07:41:44.486Z,95155.00
2023-12-20T07:42:43.328Z,95156.00
2023-12-20T07:43:42.997Z,95154.00
2023-12-20T07:44:42.959Z,95157.00
2023-12-20T07:45:43.054Z,95158.00
2023-12-20T07:46:42.970Z,95160.00
2023-12-20T07:47:43.087Z,95158.00
2023-12-20T07:48:46.112Z,95159.00
2023-12-20T07:49:42.987Z,95159.00
2023-12-20T07:50:43.004Z,95161.00
2023-12-20T07:51:43.004Z,95163.00
2023-12-20T07:52:42.984Z,95161.00
2023-12-20T07:53:42.993Z,95160.00
2023-12-20T07:54:42.982Z,95160.00
2023-12-20T07:55:43.022Z,95158.00
2023-12-20T07:56:42.971Z,95159.00
2023-12-20T07:57:43.282Z,95158.00
2023-12-20T07:58:50.805Z,95157.00
2023-12-20T07:59:44.030Z,95155.00
2023-12-20T08:00:43.060Z,95158.00
2023-12-20T08:01:43.000Z,95158.00
2023-12-20T08:02:43.022Z,95160.00
2023-12-20T08:03:43.136Z,95158.00
2023-12-20T08:04:43.053Z,95152.00
2023-12-20T08:05:43.041Z,95146.00
2023-12-20T08:06:43.149Z,95145.00
2023-12-20T08:07:43.087Z,95146.00
2023-12-20T08:08:44.031Z,95148.00
2023-12-20T08:09:43.037Z,95152.00
2023-12-20T08:10:43.010Z,95153.00
2023-12-20T08:11:43.044Z,95151.00
2023-12-20T08:12:43.156Z,95148.00
2023-12-20T08:13:43.101Z,95144.00
2023-12-20T08:14:43.137Z,95135.00
2023-12-20T08:15:43.209Z,95131.00
2023-12-20T08:16:43.232Z,95128.00
2023-12-20T08:17:43.502Z,95132.00
2023-12-20T08:18:43.298Z,95130.00
2023-12-20T08:19:43.335Z,95131.00
2023-12-20T08:20:43.462Z,95133.00
2023-12-20T08:21:43.350Z,95128.00
2023-12-20T08:22:43.298Z,95124.00
2023-12-20T08:23:43.305Z,95123.00
2023-12-20T08:24:43.354Z,95119.00
2023-12-20T08:25:43.324Z,95122.00
2023-12-20T08:26:43.380Z,95121.00
2023-12-20T08:27:43.515Z,95122.00
2023-12-20T08:28:43.470Z,95124.00
2023-12-20T08:29:43.442Z,95126.00
2023-12-20T08:30:43.585Z,95131.00
2023-12-20T08:31:43.572Z,95138.00
2023-12-20T08:32:43.861Z,95138.00
2023-12-20T08:33:43.660Z,95141.00
2023-12-20T08:34:43.759Z,95142.00
2023-12-20T08:35:43.694Z,95140.00
2023-12-20T08:36:43.822Z,95140.00
2023-12-20T08:37:44.046Z,95141.00
2023-12-20T08:38:43.896Z,95142.00
2023-12-20T08:39:46.046Z,95148.00
2023-12-20T08:40:44.035Z,95151.00
2023-12-20T08:41:44.099Z,95156.00
2023-12-20T08:42:44.433Z,95165.00
2023-12-20T08:43:44.232Z,95167.00
2023-12-20T08:44:44.298Z,95168.00
2023-12-20T08:45:44.374Z,95173.00
2023-12-20T08:46:44.390Z,95173.00
2023-12-20T08:47:44.811Z,95173.00
2023-12-20T08:48:44.767Z,95171.00
2023-12-20T08:49:44.694Z,95167.00
2023-12-20T08:50:44.834Z,95165.00
2023-12-20T08:51:44.779Z,95163.00
2023-12-20T08:52:44.861Z,95163.00
2023-12-20T08:53:44.847Z,95165.00
2023-12-20T08:54:45.756Z,95165.00
2023-12-20T08:55:44.911Z,95166.00
2023-12-20T08:56:44.996Z,95162.00
2023-12-20T08:57:45.433Z,95157.00
2023-12-20T08:58:45.089Z,95157.00
2023-12-20T08:59:45.124Z,95158.00
2023-12-20T09:00:45.250Z,95161.00
2023-12-20T09:01:45.343Z,95168.00
2023-12-20T09:02:45.320Z,95173.00
2023-12-20T09:03:45.470Z,95175.00
2023-12-20T09:04:45.417Z,95177.00
2023-12-20T09:05:45.396Z,95177.00
2023-12-20T09:06:45.572Z,95178.00
2023-12-20T09:07:45.832Z,95180.00
2023-12-20T09:08:45.486Z,95180.00
2023-12-20T09:09:45.567Z,95179.00
2023-12-20T09:10:45.627Z,95180.00
2023-12-20T09:11:45.638Z,95182.00
2023-12-20T09:12:45.733Z,95182.00
2023-12-20T09:13:45.700Z,95183.00
2023-12-20T09:14:45.779Z,95184.00
2023-12-20T09:15:45.890Z,95183.00
2023-12-20T09:16:45.855Z,95186.00
2023-12-20T09:17:46.099Z,95184.00
2023-12-20T09:18:46.082Z,95184.00
2023-12-20T09:19:46.179Z,95184.00
2023-12-20T09:20:47.790Z,95185.00
2023-12-20T09:21:46.043Z,95187.00
2023-12-20T09:22:46.034Z,95187.00
2023-12-20T09:23:46.003Z,95187.00
2023-12-20T09:24:46.054Z,95186.00
2023-12-20T09:25:46.050Z,95187.00
2023-12-20T09:26:46.073Z,95186.00
2023-12-20T09:27:46.228Z,95189.00
2023-12-20T09:28:46.076Z,95191.00
2023-12-20T09:29:46.103Z,95193.00
2023-12-20T09:30:46.202Z,95193.00
2023-12-20T09:31:46.198Z,95191.00
2023-12-20T09:32:48.040Z,95191.00
2023-12-20T09:33:46.173Z,95191.00
2023-12-20T09:34:46.129Z,95188.00
2023-12-20T09:35:46.193Z,95190.00
2023-12-20T09:36:46.080Z,95188.00
2023-12-20T09:37:46.306Z,95190.00
2023-12-20T09:38:47.647Z,95188.00
2023-12-20T09:39:46.199Z,95190.00
2023-12-20T09:40:46.045Z,95190.00
2023-12-20T09:41:46.046Z,95190.00
2023-12-20T09:42:46.034Z,95186.00
2023-12-20T09:43:46.067Z,95184.00
2023-12-20T09:44:47.889Z,95181.00
2023-12-20T09:45:46.217Z,95180.00
2023-12-20T09:46:46.230Z,95180.00
2023-12-20T09:47:46.443Z,95180.00
2023-12-20T09:48:46.366Z,95179.00
2023-12-20T09:49:46.469Z,95176.00
2023-12-20T09:50:51.076Z,95172.00
2023-12-20T09:51:47.544Z,95169.00
2023-12-20T09:52:46.483Z,95169.00
2023-12-20T09:53:46.871Z,95168.00
2023-12-20T09:54:46.550Z,95166.00
2023-12-20T09:55:46.510Z,95167.00
2023-12-20T09:56:47.854Z,95164.00
2023-12-20T09:57:46.754Z,95160.00
2023-12-20T09:58:46.545Z,95152.00
2023-12-20T09:59:46.600Z,95148.00
2023-12-20T10:00:46.696Z,95145.00
2023-12-20T10:01:46.860Z,95141.00
2023-12-20T10:02:46.760Z,95144.00
2023-12-20T10:03:46.898Z,95145.00
2023-12-20T10:04:46.902Z,95146.00
2023-12-20T10:05:47.035Z,95148.00
2023-12-20T10:06:47.207Z,95150.00
2023-12-20T10:07:47.588Z,95149.00
2023-12-20T10:08:47.380Z,95149.00
2023-12-20T10:09:47.229Z,95144.00
2023-12-20T10:10:48.677Z,95143.00
2023-12-20T10:11:47.338Z,95143.00
2023-12-20T10:12:48.658Z,95143.00
2023-12-20T10:13:47.511Z,95142.00
2023-12-20T10:14:47.520Z,95143.00
2023-12-20T10:15:47.627Z,95142.00
2023-12-20T10:16:47.654Z,95140.00
2023-12-20T10:17:48.116Z,95138.00
2023-12-20T10:18:47.859Z,95140.00
2023-12-20T10:19:47.834Z,95141.00
2023-12-20T10:20:48.101Z,95139.00
2023-12-20T10:21:47.945Z,95136.00
2023-12-20T10:22:47.928Z,95135.00
2023-12-20T10:23:48.344Z,95135.00
2023-12-20T10:24:48.036Z,95135.00
2023-12-20T10:25:48.058Z,95137.00
2023-12-20T10:26:48.121Z,95139.00
2023-12-20T10:27:48.393Z,95137.00
2023-12-20T10:28:48.239Z,95137.00
2023-12-20T10:29:48.274Z,95134.00
2023-12-20T10:30:48.401Z,95132.00
2023-12-20T10:31:48.407Z,95130.00
2023-12-20T10:32:48.456Z,95133.00
2023-12-20T10:33:48.994Z,95127.00
2023-12-20T10:34:48.636Z,95128.00
2023-12-20T10:35:48.653Z,95129.00
2023-12-20T10:36:48.721Z,95127.00
2023-12-20T10:37:48.921Z,95122.00
2023-12-20T10:38:48.705Z,95116.00
2023-12-20T10:39:48.843Z,95113.00
2023-12-20T10:40:48.823Z,95109.00
2023-12-20T10:41:48.879Z,95106.00
2023-12-20T10:42:48.970Z,95102.00
2023-12-20T10:43:49.378Z,95104.00
2023-12-20T10:44:49.015Z,95101.00
2023-12-20T10:45:49.099Z,95098.00
2023-12-20T10:46:49.903Z,95096.00
2023-12-20T10:47:49.229Z,95094.00
2023-12-20T10:48:49.422Z,95096.00
2023-12-20T10:49:49.443Z,95097.00
2023-12-20T10:50:49.434Z,95098.00
2023-12-20T10:51:49.528Z,95095.00
2023-12-20T10:52:49.532Z,95098.00
2023-12-20T10:53:51.427Z,95098.00
2023-12-20T10:54:49.674Z,95097.00
2023-12-20T10:55:49.760Z,95092.00
2023-12-20T10:56:49.789Z,95086.00
2023-12-20T10:57:50.779Z,95084.00
2023-12-20T10:58:50.392Z,95078.00
2023-12-20T10:59:51.368Z,95077.00
2023-12-20T11:00:50.241Z,95078.00
2023-12-20T11:01:50.267Z,95079.00
2023-12-20T11:02:50.156Z,95080.00
2023-12-20T11:03:50.355Z,95084.00
2023-12-20T11:04:50.450Z,95082.00
2023-12-20T11:05:51.254Z,95082.00
2023-12-20T11:06:51.416Z,95080.00
2023-12-20T11:07:50.583Z,95079.00
2023-12-20T11:08:50.624Z,95080.00
2023-12-20T11:09:50.762Z,95081.00
2023-12-20T11:10:50.721Z,95080.00
2023-12-20T11:11:50.918Z,95078.00
2023-12-20T11:12:50.862Z,95079.00
2023-12-20T11:13:50.930Z,95079.00
2023-12-20T11:14:50.950Z,95078.00
2023-12-20T11:15:51.061Z,95076.00
2023-12-20T11:16:55.086Z,95074.00
2023-12-20T11:17:52.710Z,95070.00
2023-12-20T11:18:51.462Z,95070.00
2023-12-20T11:19:51.085Z,95068.00
2023-12-20T11:20:51.089Z,95067.00
2023-12-20T11:21:51.102Z,95068.00
2023-12-20T11:22:51.083Z,95066.00
2023-12-20T11:23:51.084Z,95068.00
2023-12-20T11:24:51.447Z,95071.00
2023-12-20T11:25:51.092Z,95071.00
2023-12-20T11:26:51.129Z,95069.00
2023-12-20T11:27:53.403Z,95068.00
2023-12-20T11:28:51.239Z,95065.00
2023-12-20T11:29:51.422Z,95068.00
2023-12-20T11:30:51.413Z,95066.00
2023-12-20T11:31:51.342Z,95069.00
2023-12-20T11:32:51.360Z,95070.00
2023-12-20T11:33:51.334Z,95068.00
2023-12-20T11:34:51.373Z,95069.00
2023-12-20T11:35:51.326Z,95067.00
2023-12-20T11:36:51.358Z,95062.00
2023-12-20T11:37:51.528Z,95063.00
2023-12-20T11:38:51.383Z,95060.00
2023-12-20T11:39:52.957Z,95060.00
2023-12-20T11:40:51.405Z,95058.00
2023-12-20T11:41:51.402Z,95058.00
2023-12-20T11:42:51.551Z,95053.00
2023-12-20T11:43:51.426Z,95048.00
2023-12-20T11:44:51.883Z,95046.00